createdAt,value
2019-05-03T00:00:05.453Z,86.55
2019-05-03T00:02:53.260Z,86.70
2019-05-03T00:05:32.333Z,86.94
2019-05-03T00:08:03.485Z,86.86
2019-05-03T00:10:33.234Z,86.90
2019-05-03T00:13:02.912Z,86.78
2019-05-03T00:15:52.231Z,87.50
2019-05-03T00:18:23.115Z,87.53
2019-05-03T00:20:52.813Z,87.63
2019-05-03T00:23:22.913Z,87.47
2019-05-03T00:25:52.883Z,86.72
2019-05-03T00:28:23.399Z,86.91
2019-05-03T00:30:53.057Z,87.33
2019-05-03T00:33:22.736Z,87.32
2019-05-03T00:35:54.043Z,87.47
2019-05-03T00:38:23.728Z,87.88
2019-05-03T00:40:53.348Z,87.96
2019-05-03T00:43:23.000Z,87.88
2019-05-03T00:45:52.657Z,88.10
2019-05-03T00:48:22.269Z,87.78
2019-05-03T00:50:51.923Z,87.63
2019-05-03T00:53:22.445Z,87.60
2019-05-03T00:55:53.032Z,87.69
2019-05-03T00:58:22.720Z,87.96
2019-05-03T01:00:52.637Z,88.34
2019-05-03T01:03:22.307Z,88.16
2019-05-03T01:05:52.928Z,88.28
2019-05-03T01:08:22.997Z,88.12
2019-05-03T01:10:52.652Z,87.56
2019-05-03T01:13:22.270Z,87.76
2019-05-03T01:15:53.534Z,88.27
2019-05-03T01:18:23.249Z,88.41
2019-05-03T01:20:52.868Z,88.54
2019-05-03T01:23:22.590Z,87.95
2019-05-03T01:25:52.280Z,87.33
2019-05-03T01:28:21.996Z,87.81
2019-05-03T01:30:51.978Z,87.89
2019-05-03T01:33:22.604Z,88.11
2019-05-03T01:35:52.481Z,87.86
2019-05-03T01:38:22.663Z,88.07
2019-05-03T01:40:52.541Z,88.47
2019-05-03T01:43:22.349Z,88.22
2019-05-03T01:45:52.033Z,87.95
2019-05-03T01:48:41.514Z,87.52
2019-05-03T01:51:12.393Z,87.76
2019-05-03T01:53:42.115Z,88.31
2019-05-03T01:56:11.900Z,88.15
2019-05-03T01:58:41.782Z,88.15
2019-05-03T02:01:31.573Z,87.84
2019-05-03T02:04:05.927Z,88.29
2019-05-03T02:06:35.585Z,88.29
2019-05-03T02:09:07.799Z,86.83
2019-05-03T02:11:37.460Z,87.64
2019-05-03T02:14:07.090Z,88.18
2019-05-03T02:16:38.500Z,87.87
2019-05-03T02:19:08.240Z,87.89
2019-05-03T02:21:37.860Z,88.00
2019-05-03T02:24:07.548Z,88.08
2019-05-03T02:26:37.199Z,88.49
2019-05-03T02:29:06.890Z,88.38
2019-05-03T02:31:37.626Z,88.01
2019-05-03T02:34:07.246Z,88.23
2019-05-03T02:36:38.139Z,88.26
2019-05-03T02:39:13.329Z,88.39
2019-05-03T02:41:41.722Z,88.73
2019-05-03T02:44:15.470Z,88.74
2019-05-03T02:46:45.919Z,88.76
2019-05-03T02:49:26.163Z,88.58
2019-05-03T02:51:55.801Z,88.53
2019-05-03T02:54:26.916Z,88.58
2019-05-03T02:56:56.846Z,88.61
2019-05-03T02:59:26.684Z,88.40
2019-05-03T03:01:56.299Z,87.87
2019-05-03T03:04:26.918Z,88.04
2019-05-03T03:06:56.731Z,88.27
2019-05-03T03:09:26.354Z,88.08
2019-05-03T03:11:57.440Z,88.32
2019-05-03T03:14:27.059Z,88.24
2019-05-03T03:16:56.688Z,88.10
2019-05-03T03:19:27.917Z,88.32
2019-05-03T03:21:59.161Z,88.51
2019-05-03T03:24:28.812Z,88.48
2019-05-03T03:26:59.128Z,88.54
2019-05-03T03:29:28.790Z,88.71
2019-05-03T03:32:01.733Z,88.46
2019-05-03T03:34:39.013Z,88.58
2019-05-03T03:37:10.591Z,88.76
2019-05-03T03:39:40.411Z,88.75
2019-05-03T03:42:10.597Z,88.70
2019-05-03T03:44:40.262Z,88.76
2019-05-03T03:47:10.147Z,88.77
2019-05-03T03:49:39.801Z,88.59
2019-05-03T03:52:09.422Z,88.71
2019-05-03T03:54:39.049Z,88.58
2019-05-03T03:57:08.719Z,88.63
2019-05-03T03:59:38.317Z,88.73
2019-05-03T04:02:07.979Z,88.66
2019-05-03T04:04:38.263Z,88.70
2019-05-03T04:07:07.915Z,88.41
2019-05-03T04:09:37.572Z,88.34
2019-05-03T04:12:07.272Z,88.61
2019-05-03T04:14:38.630Z,88.73
2019-05-03T04:17:09.930Z,88.61
2019-05-03T04:19:45.469Z,88.69
2019-05-03T04:22:16.481Z,88.51
2019-05-03T04:24:46.479Z,88.73
2019-05-03T04:27:22.943Z,88.73
2019-05-03T04:29:48.022Z,89.06
2019-05-03T04:32:17.675Z,88.63
2019-05-03T04:34:47.288Z,88.48
2019-05-03T04:37:16.975Z,88.17
2019-05-03T04:39:46.645Z,88.39
2019-05-03T04:42:16.815Z,88.67
2019-05-03T04:44:46.652Z,88.85
2019-05-03T04:47:16.273Z,88.79
2019-05-03T04:49:46.407Z,88.00
2019-05-03T04:52:16.681Z,88.11
2019-05-03T04:54:48.399Z,88.50
2019-05-03T04:57:34.797Z,88.47
2019-05-03T04:59:49.466Z,88.39
2019-05-03T05:02:19.144Z,88.30
2019-05-03T05:04:48.747Z,88.08
2019-05-03T05:07:18.444Z,88.30
2019-05-03T05:09:48.083Z,88.31
2019-05-03T05:12:17.706Z,88.43
2019-05-03T05:14:47.368Z,88.27
2019-05-03T05:17:18.643Z,87.78
2019-05-03T05:19:54.801Z,87.90
2019-05-03T05:22:25.808Z,88.35
2019-05-03T05:24:56.753Z,88.61
2019-05-03T05:27:32.232Z,88.48
2019-05-03T05:30:04.610Z,88.22
2019-05-03T05:32:35.083Z,87.98
2019-05-03T05:35:07.165Z,87.96
2019-05-03T05:37:36.861Z,87.75
2019-05-03T05:40:07.002Z,88.17
2019-05-03T05:42:36.637Z,88.19
2019-05-03T05:45:07.547Z,87.24
2019-05-03T05:47:41.519Z,87.61
2019-05-03T05:50:14.845Z,87.75
2019-05-03T05:52:44.822Z,88.01
2019-05-03T05:55:31.845Z,87.48
2019-05-03T05:58:07.496Z,87.69
2019-05-03T06:00:37.091Z,87.86
2019-05-03T06:03:06.741Z,87.87
2019-05-03T06:05:36.377Z,87.85
2019-05-03T06:08:25.750Z,87.65
2019-05-03T06:10:57.016Z,87.46
2019-05-03T06:13:34.463Z,87.47
2019-05-03T06:16:24.548Z,87.63
2019-05-03T06:18:56.329Z,87.97
2019-05-03T06:21:35.195Z,87.68
2019-05-03T06:24:24.935Z,87.75
2019-05-03T06:26:58.782Z,88.26
2019-05-03T06:29:28.520Z,87.54
2019-05-03T06:31:59.837Z,86.29
2019-05-03T06:34:30.039Z,87.09
2019-05-03T06:37:01.343Z,86.78
2019-05-03T06:39:31.034Z,87.18
2019-05-03T06:42:00.703Z,87.10
2019-05-03T06:44:30.445Z,87.26
2019-05-03T06:47:01.121Z,87.31
2019-05-03T06:49:31.586Z,85.40
2019-05-03T06:52:01.232Z,86.45
2019-05-03T06:54:31.975Z,86.40
2019-05-03T06:57:05.711Z,85.46
2019-05-03T06:59:40.230Z,85.34
2019-05-03T07:02:14.840Z,85.19
2019-05-03T07:04:49.286Z,84.65
2019-05-03T07:07:32.364Z,85.32
2019-05-03T07:10:06.350Z,86.04
2019-05-03T07:12:54.707Z,86.64
2019-05-03T07:15:25.292Z,85.40
2019-05-03T07:17:55.738Z,84.06
2019-05-03T07:20:25.908Z,82.87
2019-05-03T07:22:56.095Z,84.62
2019-05-03T07:25:26.010Z,84.80
2019-05-03T07:27:55.858Z,83.93
2019-05-03T07:30:25.500Z,84.34
2019-05-03T07:32:56.774Z,84.42
2019-05-03T07:35:26.447Z,84.01
2019-05-03T07:37:56.159Z,84.59
2019-05-03T07:40:25.843Z,84.63
2019-05-03T07:42:55.749Z,84.41
2019-05-03T07:45:25.696Z,83.76
2019-05-03T07:47:56.060Z,85.02
2019-05-03T07:50:26.181Z,83.68
2019-05-03T07:52:55.982Z,84.42
2019-05-03T07:55:45.714Z,84.88
2019-05-03T07:58:16.791Z,84.51
2019-05-03T08:00:47.976Z,83.07
2019-05-03T08:03:17.655Z,83.59
2019-05-03T08:05:47.300Z,82.83
2019-05-03T08:08:16.981Z,82.51
2019-05-03T08:10:46.684Z,81.10
2019-05-03T08:13:16.328Z,81.86
2019-05-03T08:15:46.009Z,82.58
2019-05-03T08:18:15.712Z,81.78
2019-05-03T08:20:45.458Z,80.89
2019-05-03T08:23:26.364Z,80.17
2019-05-03T08:25:46.646Z,77.89
2019-05-03T08:28:16.283Z,78.23
2019-05-03T08:31:04.758Z,79.44
2019-05-03T08:33:55.346Z,79.49
2019-05-03T08:36:25.547Z,77.70
2019-05-03T08:38:56.340Z,79.42
2019-05-03T08:41:29.143Z,80.02
2019-05-03T08:43:58.839Z,80.72
2019-05-03T08:46:28.480Z,79.50
2019-05-03T08:48:58.123Z,80.68
2019-05-03T08:51:27.928Z,81.08
2019-05-03T08:53:57.600Z,80.81
2019-05-03T08:56:27.254Z,81.45
2019-05-03T08:58:56.986Z,82.52
2019-05-03T09:01:26.623Z,82.56
2019-05-03T09:03:56.271Z,81.37
2019-05-03T09:06:25.938Z,82.38
2019-05-03T09:08:57.286Z,81.27
2019-05-03T09:11:33.661Z,80.45
2019-05-03T09:14:04.567Z,80.41
2019-05-03T09:16:35.569Z,79.35
2019-05-03T09:19:05.736Z,79.62
2019-05-03T09:21:35.799Z,79.91
2019-05-03T09:24:05.430Z,80.48
2019-05-03T09:26:35.327Z,80.72
2019-05-03T09:29:05.649Z,81.22
2019-05-03T09:31:35.485Z,80.21
2019-05-03T09:34:08.072Z,79.27
2019-05-03T09:36:36.536Z,79.98
2019-05-03T09:39:08.230Z,81.51
2019-05-03T09:41:37.939Z,81.79
2019-05-03T09:44:07.562Z,83.25
2019-05-03T09:46:37.209Z,83.05
2019-05-03T09:49:13.193Z,82.70
2019-05-03T09:51:38.180Z,83.18
2019-05-03T09:54:09.524Z,82.58
2019-05-03T09:56:58.870Z,83.94
2019-05-03T09:59:29.222Z,83.62
2019-05-03T10:01:59.934Z,83.88
2019-05-03T10:04:30.055Z,82.38
2019-05-03T10:06:59.783Z,83.72
2019-05-03T10:49:28.917Z,83.48
2019-05-03T10:52:05.450Z,83.23
2019-05-03T10:54:35.870Z,82.08
2019-05-03T10:57:07.850Z,81.45
2019-05-03T10:59:38.427Z,80.44
2019-05-03T11:02:12.806Z,82.60
2019-05-03T11:04:43.694Z,83.00
2019-05-03T11:07:14.744Z,83.15
2019-05-03T11:09:49.497Z,81.34
2019-05-03T11:12:17.624Z,80.12
2019-05-03T11:14:47.930Z,80.29
2019-05-03T11:17:17.653Z,77.52
2019-05-03T11:19:47.273Z,76.49
2019-05-03T11:22:17.947Z,79.44
2019-05-03T11:24:47.831Z,76.56
2019-05-03T11:27:25.565Z,75.88
2019-05-03T11:29:55.608Z,76.62
2019-05-03T11:32:32.581Z,77.66
2019-05-03T11:35:06.878Z,79.16
2019-05-03T11:37:45.288Z,72.53
2019-05-03T11:40:19.038Z,75.01
2019-05-03T11:42:50.238Z,73.09
2019-05-03T11:45:20.582Z,72.11
2019-05-03T11:47:50.287Z,75.30
2019-05-03T11:50:19.954Z,72.75
2019-05-03T11:52:50.019Z,74.92
2019-05-03T11:55:20.497Z,72.72
2019-05-03T11:57:50.241Z,73.63
2019-05-03T12:00:22.058Z,72.25
2019-05-03T12:02:55.468Z,68.86
2019-05-03T12:05:29.660Z,68.74
2019-05-03T12:07:59.610Z,69.50
2019-05-03T12:10:45.970Z,69.05
2019-05-03T12:13:04.908Z,68.75
2019-05-03T12:15:35.245Z,67.12
2019-05-03T12:18:08.069Z,67.20
2019-05-03T12:20:39.521Z,66.56
2019-05-03T12:23:10.618Z,67.14
2019-05-03T12:25:41.563Z,68.69
2019-05-03T12:28:11.931Z,65.32
2019-05-03T12:30:42.130Z,67.01
2019-05-03T12:33:11.826Z,66.04
2019-05-03T12:35:41.487Z,68.71
2019-05-03T12:38:11.346Z,67.82
2019-05-03T12:40:41.236Z,68.23
2019-05-03T12:43:11.414Z,69.06
2019-05-03T12:45:41.188Z,67.36
2019-05-03T12:48:10.809Z,68.39
2019-05-03T12:50:40.868Z,69.01
2019-05-03T12:53:11.799Z,70.01
2019-05-03T12:55:41.605Z,69.98
2019-05-03T12:58:15.081Z,69.83
2019-05-03T13:00:52.773Z,71.43
2019-05-03T13:03:25.533Z,71.77
2019-05-03T13:05:55.680Z,71.82
2019-05-03T13:08:35.395Z,73.75
2019-05-03T13:11:06.828Z,72.99
2019-05-03T13:13:36.682Z,74.00
2019-05-03T13:16:07.503Z,74.23
2019-05-03T13:18:37.894Z,75.45
2019-05-03T13:21:07.646Z,75.49
2019-05-03T13:23:37.400Z,72.85
2019-05-03T13:26:07.898Z,74.09
2019-05-03T13:28:37.838Z,74.94
2019-05-03T13:31:07.823Z,74.53
2019-05-03T13:33:37.485Z,72.59
2019-05-03T13:36:07.331Z,75.43
2019-05-03T13:38:37.085Z,74.37
2019-05-03T13:41:07.226Z,76.15
2019-05-03T13:43:38.727Z,74.31
2019-05-03T13:46:09.257Z,72.24
2019-05-03T13:48:44.901Z,73.14
2019-05-03T13:51:10.652Z,74.14
2019-05-03T13:53:41.663Z,74.74
2019-05-03T13:56:15.152Z,75.43
2019-05-03T13:58:44.749Z,75.59
2019-05-03T14:01:17.031Z,75.57
2019-05-03T14:03:46.531Z,74.64
2019-05-03T14:06:16.228Z,74.88
2019-05-03T14:08:45.899Z,74.41
2019-05-03T14:11:15.736Z,74.79
2019-05-03T14:13:45.543Z,75.86
2019-05-03T14:16:15.276Z,74.65
2019-05-03T14:18:46.534Z,74.71
2019-05-03T14:21:24.615Z,75.80
2019-05-03T14:24:10.230Z,73.18
2019-05-03T14:26:41.418Z,73.48
2019-05-03T14:29:11.054Z,74.80
2019-05-03T14:31:40.762Z,73.64
2019-05-03T14:34:10.572Z,74.33
2019-05-03T14:36:40.279Z,73.40
2019-05-03T14:39:10.506Z,71.33
2019-05-03T14:41:40.649Z,72.91
2019-05-03T14:44:10.399Z,73.01
2019-05-03T14:46:40.612Z,74.60
2019-05-03T14:49:10.317Z,75.20
2019-05-03T14:51:40.086Z,74.95
2019-05-03T14:54:10.721Z,76.50
2019-05-03T14:56:45.649Z,78.01
2019-05-03T14:59:37.302Z,80.32
2019-05-03T15:02:09.498Z,80.42
2019-05-03T15:04:40.171Z,81.02
2019-05-03T15:07:10.326Z,81.41
2019-05-03T15:09:40.884Z,82.19
2019-05-03T15:12:11.038Z,82.16
2019-05-03T15:14:41.251Z,82.31
2019-05-03T15:17:11.400Z,82.48
2019-05-03T15:19:42.935Z,82.43
2019-05-03T15:22:14.664Z,82.64
2019-05-03T15:24:46.694Z,83.38
2019-05-03T15:27:16.880Z,83.60
2019-05-03T15:29:46.642Z,83.50
2019-05-03T15:32:16.853Z,83.25
2019-05-03T15:34:47.044Z,82.74
2019-05-03T15:37:17.997Z,83.56
2019-05-03T15:39:47.656Z,81.92
2019-05-03T15:42:18.946Z,81.11
2019-05-03T15:44:54.544Z,83.03
2019-05-03T15:47:32.273Z,83.18
2019-05-03T15:50:02.110Z,83.10
2019-05-03T15:52:31.810Z,82.90
2019-05-03T15:55:01.476Z,83.12
2019-05-03T15:57:32.077Z,81.33
2019-05-03T16:00:02.335Z,81.65
2019-05-03T16:02:32.440Z,81.87
2019-05-03T16:05:02.079Z,82.57
2019-05-03T16:07:32.366Z,82.71
2019-05-03T16:10:02.099Z,82.87
2019-05-03T16:12:31.948Z,82.48
2019-05-03T16:15:04.527Z,82.26
2019-05-03T16:17:35.434Z,82.15
2019-05-03T16:20:07.070Z,82.50
2019-05-03T16:22:38.867Z,82.62
2019-05-03T16:25:09.421Z,82.88
2019-05-03T16:27:47.167Z,83.01
2019-05-03T16:30:36.448Z,82.92
2019-05-03T16:33:04.666Z,82.94
2019-05-03T16:35:37.767Z,82.64
2019-05-03T16:38:07.610Z,82.74
2019-05-03T16:40:37.508Z,83.11
2019-05-03T16:43:07.814Z,82.81
2019-05-03T16:45:38.616Z,82.27
2019-05-03T16:48:08.804Z,82.38
2019-05-03T16:50:38.746Z,82.16
2019-05-03T16:53:08.466Z,81.92
2019-05-03T16:55:38.210Z,82.42
